createdAt,value
2018-11-03T00:00:52.353Z,16.90
2018-11-03T00:03:20.348Z,17.30
2018-11-03T00:05:48.356Z,17.60
2018-11-03T00:08:16.352Z,17.03
2018-11-03T00:10:44.330Z,15.67
2018-11-03T00:13:12.380Z,15.80
2018-11-03T00:15:40.392Z,15.60
2018-11-03T00:18:08.476Z,16.77
2018-11-03T00:20:36.601Z,16.97
2018-11-03T00:23:04.617Z,15.60
2018-11-03T00:25:32.594Z,17.00
2018-11-03T00:28:00.578Z,16.40
2018-11-03T00:30:28.593Z,16.30
2018-11-03T00:32:56.575Z,15.37
2018-11-03T00:35:24.559Z,16.40
2018-11-03T00:37:52.554Z,15.70
2018-11-03T00:40:20.594Z,14.40
2018-11-03T00:42:48.549Z,15.53
2018-11-03T00:45:16.498Z,16.07
2018-11-03T00:47:44.972Z,14.57
2018-11-03T00:50:14.183Z,15.60
2018-11-03T00:52:42.465Z,14.60
2018-11-03T00:55:11.137Z,13.30
2018-11-03T00:57:39.878Z,13.37
2018-11-03T01:00:10.364Z,13.33
2018-11-03T01:02:38.593Z,14.00
2018-11-03T01:05:06.776Z,15.50
2018-11-03T01:07:34.904Z,15.83
2018-11-03T01:10:02.909Z,16.50
2018-11-03T01:12:30.924Z,17.27
2018-11-03T01:14:58.905Z,18.03
2018-11-03T01:17:26.887Z,15.27
2018-11-03T01:19:54.908Z,15.00
2018-11-03T01:22:22.873Z,14.57
2018-11-03T01:24:50.865Z,15.00
2018-11-03T01:27:18.850Z,14.20
2018-11-03T01:29:46.828Z,15.10
2018-11-03T01:32:14.838Z,14.23
2018-11-03T01:34:42.826Z,13.47
2018-11-03T01:37:10.840Z,14.40
2018-11-03T01:39:38.836Z,14.50
2018-11-03T01:42:06.810Z,15.30
2018-11-03T01:44:34.798Z,16.57
2018-11-03T01:47:02.777Z,16.10
2018-11-03T01:49:30.773Z,16.60
2018-11-03T01:54:33.289Z,15.77
2018-11-03T01:57:01.271Z,15.43
2018-11-03T01:59:29.249Z,16.30
2018-11-03T02:01:57.237Z,16.47
2018-11-03T02:04:25.228Z,15.00
2018-11-03T02:06:53.193Z,15.80
2018-11-03T02:09:21.364Z,15.83
2018-11-03T02:11:49.348Z,15.40
2018-11-03T02:14:17.331Z,14.83
2018-11-03T02:16:45.305Z,15.20
2018-11-03T02:19:13.571Z,14.47
2018-11-03T02:21:41.588Z,15.30
2018-11-03T02:24:09.569Z,15.37
2018-11-03T02:26:37.550Z,16.20
2018-11-03T02:29:05.553Z,14.07
2018-11-03T02:31:33.513Z,14.70
2018-11-03T02:34:01.502Z,14.53
2018-11-03T02:36:29.525Z,16.70
2018-11-03T02:38:57.506Z,17.43
2018-11-03T02:41:25.528Z,17.83
2018-11-03T02:43:53.498Z,17.00
2018-11-03T02:46:21.489Z,16.20
2018-11-03T02:48:49.469Z,16.27
2018-11-03T02:51:17.496Z,16.60
2018-11-03T02:53:45.498Z,14.83
2018-11-03T02:56:13.494Z,17.17
2018-11-03T02:58:41.508Z,16.73
2018-11-03T03:01:09.488Z,15.53
2018-11-03T03:03:37.502Z,16.33
2018-11-03T03:06:05.480Z,15.73
2018-11-03T03:08:33.522Z,14.77
2018-11-03T03:11:01.514Z,15.23
2018-11-03T03:13:29.494Z,15.27
2018-11-03T03:15:57.477Z,15.63
2018-11-03T03:18:25.505Z,16.73
2018-11-03T03:20:53.506Z,16.00
2018-11-03T03:23:21.522Z,16.53
2018-11-03T03:25:49.537Z,16.90
2018-11-03T03:28:17.589Z,15.63
2018-11-03T03:30:45.581Z,15.33
2018-11-03T03:33:13.569Z,15.10
2018-11-03T03:35:41.570Z,14.30
2018-11-03T03:38:09.570Z,14.57
2018-11-03T03:40:37.554Z,14.43
2018-11-03T03:43:05.560Z,14.50
2018-11-03T03:45:33.560Z,14.93
2018-11-03T03:48:01.535Z,14.10
2018-11-03T03:50:29.525Z,14.33
2018-11-03T03:52:57.498Z,15.97
2018-11-03T03:55:25.484Z,15.63
2018-11-03T03:57:53.469Z,14.93
2018-11-03T04:00:21.450Z,14.90
2018-11-03T04:02:49.459Z,15.60
2018-11-03T04:05:17.469Z,15.43
2018-11-03T04:07:45.449Z,17.47
2018-11-03T04:10:13.458Z,17.83
2018-11-03T04:12:41.463Z,16.30
2018-11-03T04:15:09.455Z,17.07
2018-11-03T04:17:37.481Z,17.67
2018-11-03T04:20:05.983Z,17.87
2018-11-03T04:22:33.964Z,15.80
2018-11-03T04:25:01.951Z,17.47
2018-11-03T04:27:29.941Z,17.73
2018-11-03T04:29:57.927Z,17.47
2018-11-03T04:32:25.902Z,17.43
2018-11-03T04:34:53.894Z,18.80
2018-11-03T04:37:22.038Z,17.70
2018-11-03T04:39:50.034Z,18.93
2018-11-03T04:42:18.034Z,17.10
2018-11-03T04:44:46.013Z,15.60
2018-11-03T04:47:14.026Z,16.50
2018-11-03T04:49:42.028Z,15.10
2018-11-03T04:52:10.015Z,16.60
2018-11-03T04:54:38.002Z,14.83
2018-11-03T04:57:06.018Z,14.00
2018-11-03T04:59:34.017Z,14.30
2018-11-03T05:02:02.008Z,15.30
2018-11-03T05:04:29.994Z,14.10
2018-11-03T05:06:57.992Z,12.87
2018-11-03T05:09:26.029Z,14.47
2018-11-03T05:11:54.062Z,13.43
2018-11-03T05:14:22.049Z,14.87
2018-11-03T05:16:50.042Z,13.93
2018-11-03T05:19:18.023Z,15.97
2018-11-03T05:21:46.031Z,15.40
2018-11-03T05:24:14.014Z,16.73
2018-11-03T05:26:42.002Z,15.03
2018-11-03T05:29:10.027Z,15.10
2018-11-03T05:31:38.037Z,14.83
2018-11-03T05:34:06.043Z,14.60
2018-11-03T05:36:34.055Z,15.90
2018-11-03T05:39:02.121Z,13.93
2018-11-03T05:41:30.060Z,13.97
2018-11-03T05:43:58.035Z,14.33
2018-11-03T05:46:26.101Z,14.00
2018-11-03T05:48:54.064Z,14.07
2018-11-03T05:51:22.081Z,15.93
2018-11-03T05:53:50.081Z,13.67
2018-11-03T05:56:18.107Z,13.57
2018-11-03T05:58:46.313Z,13.80
2018-11-03T06:01:14.278Z,12.60
2018-11-03T06:03:42.339Z,11.93
2018-11-03T06:06:10.332Z,13.33
2018-11-03T06:08:38.436Z,13.47
2018-11-03T06:11:06.519Z,12.90
2018-11-03T06:13:34.573Z,13.80
2018-11-03T06:16:02.577Z,12.73
2018-11-03T06:18:30.563Z,10.77
2018-11-03T06:20:58.590Z,12.20
2018-11-03T06:23:26.672Z,11.70
2018-11-03T06:25:54.578Z,13.33
2018-11-03T06:28:22.580Z,12.73
2018-11-03T06:30:50.559Z,12.17
2018-11-03T06:33:18.542Z,12.20
2018-11-03T06:35:46.531Z,11.83
2018-11-03T06:38:14.535Z,12.37
2018-11-03T06:40:42.527Z,12.13
2018-11-03T06:43:10.510Z,12.10
2018-11-03T06:45:38.501Z,11.80
2018-11-03T06:48:06.521Z,11.90
2018-11-03T06:50:34.503Z,11.57
2018-11-03T06:53:02.509Z,11.53
2018-11-03T06:55:30.505Z,12.07
2018-11-03T06:57:58.484Z,12.73
2018-11-03T07:00:26.482Z,11.33
2018-11-03T07:02:54.481Z,12.83
2018-11-03T07:05:22.514Z,13.50
2018-11-03T07:07:50.487Z,12.90
2018-11-03T07:10:18.473Z,11.13
2018-11-03T07:12:46.755Z,12.33
2018-11-03T07:15:14.495Z,11.70
2018-11-03T07:17:42.446Z,11.57
2018-11-03T07:20:11.664Z,12.53
2018-11-03T07:22:39.684Z,11.70
2018-11-03T07:25:08.019Z,10.37
2018-11-03T07:27:42.625Z,11.87
2018-11-03T07:30:11.642Z,9.53
2018-11-03T07:32:39.669Z,10.90
2018-11-03T07:35:07.978Z,10.43
2018-11-03T07:37:36.050Z,10.97
2018-11-03T07:40:04.530Z,11.07
2018-11-03T07:42:32.535Z,10.53
2018-11-03T07:45:00.549Z,10.10
2018-11-03T07:47:28.557Z,10.93
2018-11-03T07:49:56.558Z,9.43
2018-11-03T07:52:24.577Z,10.30
2018-11-03T07:54:52.676Z,10.10
2018-11-03T07:57:20.599Z,11.30
2018-11-03T07:59:48.886Z,11.13
2018-11-03T08:02:16.877Z,11.20
2018-11-03T08:04:44.962Z,10.23
2018-11-03T08:07:12.973Z,11.10
2018-11-03T08:09:41.195Z,11.77
2018-11-03T08:12:09.186Z,11.37
2018-11-03T08:14:38.502Z,10.87
2018-11-03T08:17:08.426Z,9.30
2018-11-03T08:19:38.320Z,11.73
2018-11-03T08:22:09.142Z,11.40
2018-11-03T08:24:40.999Z,11.67
2018-11-03T08:27:19.356Z,10.60
2018-11-03T08:29:51.326Z,10.77
2018-11-03T08:32:20.648Z,10.83
2018-11-03T08:34:49.407Z,10.60
2018-11-03T08:37:17.567Z,11.50
2018-11-03T08:39:49.537Z,11.87
2018-11-03T08:42:19.960Z,9.83
2018-11-03T08:45:13.976Z,9.77
2018-11-03T08:47:47.881Z,10.57
2018-11-03T08:55:58.565Z,11.30
2018-11-03T08:58:40.727Z,11.30
2018-11-03T09:01:10.085Z,10.30
2018-11-03T09:03:39.423Z,10.80
2018-11-03T09:06:07.694Z,10.97
2018-11-03T09:08:43.095Z,10.13
2018-11-03T09:11:11.666Z,10.60
2018-11-03T09:13:40.070Z,10.13
2018-11-03T09:16:08.865Z,10.67
2018-11-03T09:18:42.183Z,10.60
2018-11-03T09:21:14.603Z,10.63
2018-11-03T09:23:49.208Z,11.67
2018-11-03T09:26:19.778Z,10.53
2018-11-03T09:28:51.063Z,10.00
2018-11-03T09:31:21.728Z,11.57
2018-11-03T09:33:53.007Z,10.50
2018-11-03T09:36:23.255Z,11.40
2018-11-03T09:38:56.652Z,11.97
2018-11-03T09:41:28.536Z,12.93
2018-11-03T09:43:59.262Z,11.53
2018-11-03T09:46:38.426Z,11.60
2018-11-03T09:49:11.095Z,11.27
2018-11-03T09:51:42.821Z,11.60
2018-11-03T09:54:15.324Z,11.93
2018-11-03T09:56:45.932Z,12.10
2018-11-03T09:59:14.751Z,12.20
2018-11-03T10:01:46.171Z,11.73
2018-11-03T10:04:24.247Z,11.50
2018-11-03T10:07:04.546Z,10.20
2018-11-03T10:09:40.635Z,12.13
2018-11-03T10:12:10.348Z,13.03
2018-11-03T10:14:42.031Z,12.37
2018-11-03T10:17:29.198Z,12.03
2018-11-03T10:20:07.978Z,12.00
2018-11-03T10:22:40.048Z,12.20
2018-11-03T10:25:11.287Z,12.57
2018-11-03T10:27:40.734Z,13.20
2018-11-03T10:30:16.244Z,12.20
2018-11-03T10:32:46.044Z,13.43
2018-11-03T10:35:15.834Z,13.37
2018-11-03T10:37:44.941Z,13.27
2018-11-03T10:40:16.988Z,13.97
2018-11-03T10:42:46.627Z,12.80
2018-11-03T10:45:16.906Z,14.20
2018-11-03T10:47:47.064Z,12.93
2018-11-03T10:53:02.659Z,12.10
2018-11-03T10:55:31.326Z,12.37
2018-11-03T10:57:59.799Z,11.93
2018-11-03T11:00:34.117Z,13.90
2018-11-03T11:06:01.079Z,12.67
2018-11-03T11:08:36.167Z,12.80
2018-11-03T11:11:17.261Z,12.60
2018-11-03T11:16:29.656Z,13.03
2018-11-03T11:19:00.732Z,13.33
2018-11-03T11:21:30.144Z,13.10
2018-11-03T11:23:58.693Z,14.40
2018-11-03T11:26:29.420Z,13.67
2018-11-03T11:28:59.289Z,13.77
2018-11-03T11:31:30.957Z,14.60
2018-11-03T11:34:03.094Z,14.43
2018-11-03T11:36:33.380Z,13.63
2018-11-03T11:39:02.205Z,13.17
2018-11-03T11:41:33.256Z,14.30
2018-11-03T11:44:01.764Z,14.20
2018-11-03T11:46:29.887Z,14.50
2018-11-03T11:49:01.087Z,14.10
2018-11-03T11:51:29.239Z,13.10
2018-11-03T11:53:57.427Z,14.80
2018-11-03T11:56:31.525Z,14.63
2018-11-03T11:59:02.949Z,15.60
2018-11-03T12:01:31.007Z,15.93
2018-11-03T12:04:07.956Z,14.70
2018-11-03T12:06:41.713Z,15.70
2018-11-03T12:09:10.107Z,16.30
2018-11-03T12:11:38.124Z,16.23
2018-11-03T12:14:06.197Z,15.43
2018-11-03T12:16:34.701Z,16.47
2018-11-03T12:19:02.798Z,16.10
2018-11-03T12:21:34.859Z,15.90
2018-11-03T12:24:03.964Z,16.10
2018-11-03T12:26:33.475Z,17.10
2018-11-03T12:29:06.849Z,17.23
2018-11-03T12:31:34.891Z,15.30
2018-11-03T12:34:02.969Z,17.53
2018-11-03T12:36:30.974Z,18.00
2018-11-03T12:39:01.008Z,14.80
2018-11-03T12:41:29.689Z,16.40
2018-11-03T12:44:00.336Z,15.90
2018-11-03T12:46:28.594Z,16.33
2018-11-03T12:48:59.509Z,16.93
2018-11-03T12:51:30.181Z,16.77
2018-11-03T12:54:04.171Z,17.87
2018-11-03T12:56:33.630Z,17.90
2018-11-03T12:59:05.469Z,17.80
2018-11-03T13:01:34.227Z,16.73
2018-11-03T13:04:03.285Z,17.30
2018-11-03T13:06:31.536Z,15.90
2018-11-03T13:09:00.478Z,16.50
2018-11-03T13:11:28.563Z,18.00
2018-11-03T13:13:56.756Z,15.03
2018-11-03T13:16:24.971Z,17.13
2018-11-03T13:18:53.131Z,17.07
2018-11-03T13:21:21.246Z,15.47
2018-11-03T13:23:49.525Z,14.97
2018-11-03T13:26:17.956Z,15.50
2018-11-03T13:28:47.132Z,17.67
2018-11-03T13:31:15.588Z,17.30
2018-11-03T13:33:44.915Z,15.83
2018-11-03T13:36:12.996Z,15.80
2018-11-03T13:38:40.991Z,15.63
2018-11-03T13:41:09.035Z,16.03
2018-11-03T13:43:37.034Z,15.50
2018-11-03T13:46:05.136Z,15.23
2018-11-03T13:48:33.169Z,15.17
2018-11-03T13:51:01.213Z,14.30
2018-11-03T13:53:29.218Z,15.77
2018-11-03T13:55:57.254Z,14.77
2018-11-03T13:58:25.242Z,14.53
2018-11-03T14:00:53.282Z,15.00
2018-11-03T14:03:21.377Z,15.07
2018-11-03T14:05:49.398Z,14.10
2018-11-03T14:08:18.446Z,13.57
2018-11-03T14:10:46.475Z,11.90
2018-11-03T14:13:14.480Z,12.97
2018-11-03T14:15:42.619Z,12.00
2018-11-03T14:18:10.759Z,12.30
2018-11-03T14:20:38.774Z,12.73
2018-11-03T14:23:06.948Z,13.00
2018-11-03T14:25:34.950Z,13.63
2018-11-03T14:28:03.351Z,14.10
2018-11-03T14:30:31.524Z,13.30
2018-11-03T15:27:07.648Z,19.47
2018-11-03T15:29:35.864Z,21.60
2018-11-03T15:32:04.156Z,22.93
2018-11-03T15:34:32.425Z,21.55
2018-11-03T15:37:00.700Z,24.50
2018-11-03T15:39:28.886Z,23.87
2018-11-03T15:41:57.132Z,24.87
2018-11-03T15:44:25.335Z,25.70
2018-11-03T15:46:53.597Z,24.55
2018-11-03T15:49:21.814Z,24.57
2018-11-03T15:51:50.337Z,24.98
2018-11-03T15:54:18.540Z,24.95
2018-11-03T15:56:46.895Z,26.05
2018-11-03T15:59:15.155Z,26.12
2018-11-03T16:01:43.444Z,26.50
2018-11-03T16:04:11.707Z,26.73
2018-11-03T16:06:40.166Z,26.97
2018-11-03T16:09:09.852Z,26.95
2018-11-03T16:11:38.117Z,28.75
2018-11-03T16:14:06.436Z,29.02
2018-11-03T16:16:34.659Z,29.60
2018-11-03T16:19:02.888Z,30.05
2018-11-03T16:21:31.120Z,29.57
2018-11-03T16:23:59.354Z,30.32
2018-11-03T16:26:27.683Z,30.62
2018-11-03T16:28:55.980Z,29.70
2018-11-03T16:31:24.337Z,30.08
2018-11-03T16:33:52.571Z,31.35
2018-11-03T16:36:20.833Z,32.00
2018-11-03T16:38:49.066Z,31.37
2018-11-03T16:41:17.336Z,33.30
2018-11-03T16:43:45.571Z,31.80
2018-11-03T16:46:13.837Z,30.85
2018-11-03T16:48:42.055Z,32.07
2018-11-03T16:51:10.296Z,33.35
2018-11-03T16:53:38.527Z,32.43
2018-11-03T16:56:06.760Z,31.60
2018-11-03T16:58:35.067Z,31.30
2018-11-03T17:01:03.231Z,31.73
2018-11-03T17:03:31.449Z,32.08
2018-11-03T17:05:59.722Z,33.45
2018-11-03T17:08:34.480Z,31.65
2018-11-03T17:11:02.698Z,32.73
2018-11-03T17:13:30.973Z,31.48
2018-11-03T17:15:59.220Z,31.23
2018-11-03T17:18:27.592Z,29.72
2018-11-03T17:20:55.854Z,31.65
2018-11-03T17:23:24.165Z,32.27
2018-11-03T17:25:52.368Z,31.25
2018-11-03T17:28:20.615Z,31.85
2018-11-03T17:30:48.848Z,32.58
2018-11-03T17:33:17.107Z,32.80
2018-11-03T17:35:45.364Z,31.25
2018-11-03T17:38:13.613Z,31.62
2018-11-03T17:40:41.860Z,32.55
2018-11-03T17:43:10.169Z,33.80
2018-11-03T17:45:38.449Z,31.57
2018-11-03T17:48:06.673Z,33.50
2018-11-03T17:50:34.981Z,33.13
2018-11-03T17:53:03.280Z,32.63
2018-11-03T17:55:31.533Z,32.88
2018-11-03T17:57:59.830Z,33.55
2018-11-03T18:00:28.393Z,32.00
2018-11-03T18:02:56.945Z,32.13
2018-11-03T18:05:25.410Z,31.48
2018-11-03T18:07:53.748Z,31.55
2018-11-03T18:10:22.172Z,31.50
2018-11-03T18:12:50.504Z,32.10
2018-11-03T18:15:18.859Z,32.17
2018-11-03T18:17:47.286Z,31.97
2018-11-03T18:20:16.387Z,33.37
2018-11-03T18:22:44.663Z,31.35
2018-11-03T18:25:12.897Z,31.93
2018-11-03T18:27:41.357Z,31.75
2018-11-03T18:30:12.025Z,30.70
2018-11-03T18:32:40.749Z,31.82
2018-11-03T18:35:09.236Z,31.17
2018-11-03T18:37:37.623Z,29.85
2018-11-03T18:40:06.931Z,30.70
2018-11-03T18:42:35.616Z,29.18
2018-11-03T18:45:03.991Z,30.25
2018-11-03T18:47:32.223Z,29.50
2018-11-03T18:50:00.482Z,27.80
2018-11-03T18:52:28.870Z,29.52
2018-11-03T18:54:57.289Z,29.00
2018-11-03T18:57:25.813Z,30.00
2018-11-03T18:59:54.082Z,28.20
2018-11-03T19:02:22.695Z,29.80
2018-11-03T19:04:50.864Z,28.47
2018-11-03T19:07:19.159Z,30.05
2018-11-03T19:09:47.515Z,29.42
2018-11-03T19:12:15.763Z,29.00
2018-11-03T19:14:44.203Z,29.35
2018-11-03T19:17:13.357Z,29.60
2018-11-03T19:19:42.409Z,29.18
2018-11-03T19:22:10.643Z,29.60
2018-11-03T19:24:39.085Z,29.10
2018-11-03T19:27:07.555Z,28.70
2018-11-03T19:29:35.795Z,29.53
2018-11-03T19:32:04.090Z,28.50
2018-11-03T19:34:32.356Z,28.27
2018-11-03T19:37:00.981Z,27.95
2018-11-03T19:39:29.269Z,26.97
2018-11-03T19:41:57.747Z,25.70
2018-11-03T19:44:26.332Z,24.40
2018-11-03T19:46:54.566Z,24.82
2018-11-03T19:49:22.830Z,24.80
2018-11-03T19:51:51.117Z,24.97
2018-11-03T19:54:19.307Z,25.30
2018-11-03T19:56:47.519Z,24.52
2018-11-03T19:59:15.749Z,24.50
2018-11-03T20:01:44.178Z,23.15
2018-11-03T20:04:12.406Z,22.93
2018-11-03T20:06:40.651Z,21.30
2018-11-03T20:09:08.940Z,21.90
2018-11-03T20:11:37.189Z,20.37
2018-11-03T20:14:05.649Z,21.20
2018-11-03T20:16:33.776Z,19.57
2018-11-03T20:19:02.033Z,20.48
2018-11-03T20:21:30.263Z,20.63
2018-11-03T20:23:58.547Z,20.97
2018-11-03T20:26:26.767Z,22.55
2018-11-03T20:28:55.052Z,20.52
2018-11-03T20:31:23.284Z,20.88
2018-11-03T20:33:51.495Z,20.90
2018-11-03T20:36:19.764Z,20.48
2018-11-03T20:38:47.970Z,21.82
2018-11-03T20:41:16.155Z,21.93
2018-11-03T20:43:44.339Z,22.00
2018-11-03T20:46:12.540Z,22.10
2018-11-03T20:48:40.763Z,22.13
2018-11-03T20:51:10.626Z,23.07
2018-11-03T20:53:39.510Z,23.00
2018-11-03T20:56:07.980Z,22.65
2018-11-03T20:58:36.192Z,25.52
2018-11-03T21:01:04.828Z,24.70
2018-11-03T21:03:33.166Z,23.70
2018-11-03T21:06:01.474Z,23.75
2018-11-03T21:08:29.682Z,24.70
2018-11-03T21:10:57.976Z,23.77
2018-11-03T21:13:26.170Z,25.10
2018-11-03T21:15:54.367Z,23.80
2018-11-03T21:18:22.562Z,23.42
2018-11-03T21:20:50.778Z,22.98
2018-11-03T21:23:19.012Z,23.25
2018-11-03T21:25:47.214Z,22.97
2018-11-03T21:28:15.429Z,21.37
2018-11-03T21:30:43.634Z,23.00
2018-11-03T21:33:12.095Z,22.98
2018-11-03T21:35:40.073Z,23.20
2018-11-03T21:38:08.293Z,22.80
2018-11-03T21:40:36.487Z,22.30
2018-11-03T21:43:04.897Z,23.57
2018-11-03T21:45:33.070Z,23.87
2018-11-03T21:48:01.283Z,23.15
2018-11-03T21:50:29.455Z,23.87
2018-11-03T21:52:57.630Z,24.18
2018-11-03T21:55:25.822Z,23.05
2018-11-03T21:57:54.019Z,24.52
2018-11-03T22:00:22.228Z,25.05
2018-11-03T22:02:50.435Z,25.52
2018-11-03T22:05:18.619Z,25.75
2018-11-03T22:07:46.824Z,23.90
2018-11-03T22:10:15.016Z,23.35
2018-11-03T22:12:43.594Z,23.92
2018-11-03T22:15:11.806Z,24.80
2018-11-03T22:17:39.982Z,24.72
2018-11-03T22:20:09.559Z,25.10
2018-11-03T22:22:37.854Z,24.60
2018-11-03T22:25:06.668Z,24.82
2018-11-03T22:27:35.109Z,24.10
2018-11-03T22:30:03.298Z,24.30
2018-11-03T22:32:31.506Z,24.30
2018-11-03T22:34:59.710Z,24.15
2018-11-03T22:37:27.882Z,25.77
2018-11-03T22:39:56.087Z,24.63
2018-11-03T22:42:24.267Z,24.30
2018-11-03T22:44:52.494Z,22.85
2018-11-03T22:47:20.715Z,24.98
2018-11-03T22:49:49.044Z,24.00
2018-11-03T22:52:17.236Z,23.73
2018-11-03T22:54:45.420Z,23.55
2018-11-03T22:57:13.706Z,24.32
2018-11-03T22:59:41.991Z,23.85
2018-11-03T23:02:10.185Z,23.05
2018-11-03T23:04:38.432Z,24.65
2018-11-03T23:07:06.646Z,24.45
2018-11-03T23:09:34.843Z,25.23
2018-11-03T23:12:03.463Z,26.05
2018-11-03T23:14:31.675Z,27.67
2018-11-03T23:16:59.888Z,24.95
2018-11-03T23:19:28.115Z,26.33
2018-11-03T23:21:56.352Z,26.05
2018-11-03T23:24:24.535Z,25.35
2018-11-03T23:26:52.738Z,23.90
2018-11-03T23:29:20.991Z,26.27
2018-11-03T23:31:49.139Z,24.70
2018-11-03T23:34:17.339Z,23.83
2018-11-03T23:36:45.531Z,23.43
2018-11-03T23:39:13.754Z,22.98
2018-11-03T23:41:41.959Z,23.00
2018-11-03T23:44:10.564Z,21.97
2018-11-03T23:46:39.014Z,22.75
2018-11-03T23:49:07.375Z,23.40
2018-11-03T23:51:35.560Z,24.57
2018-11-03T23:54:03.764Z,23.95
2018-11-03T23:56:31.939Z,23.40
2018-11-03T23:59:00.157Z,23.55
